createdAt,value
2018-09-30T00:01:56.841Z,9.40
2018-09-30T00:04:25.087Z,9.30
2018-09-30T00:06:53.331Z,9.30
2018-09-30T00:09:25.811Z,9.40
2018-09-30T00:11:54.039Z,9.40
2018-09-30T00:14:22.275Z,9.30
2018-09-30T00:16:50.480Z,9.30
2018-09-30T00:19:18.719Z,9.40
2018-09-30T00:21:46.963Z,9.50
2018-09-30T00:24:20.615Z,9.50
2018-09-30T00:26:54.216Z,9.40
2018-09-30T00:29:22.727Z,9.40
2018-09-30T00:31:50.963Z,9.70
2018-09-30T00:34:24.578Z,9.70
2018-09-30T00:36:53.382Z,9.60
2018-09-30T00:39:21.631Z,9.50
2018-09-30T00:41:49.892Z,9.40
2018-09-30T00:44:18.123Z,9.30
2018-09-30T00:46:49.383Z,9.20
2018-09-30T00:49:17.598Z,9.30
2018-09-30T00:51:45.820Z,9.30
2018-09-30T00:54:14.806Z,9.40
2018-09-30T00:56:43.179Z,9.50
2018-09-30T00:59:11.889Z,9.40
2018-09-30T01:01:40.118Z,9.40
2018-09-30T01:04:08.658Z,9.60
2018-09-30T01:06:36.901Z,9.60
2018-09-30T01:09:08.662Z,9.50
2018-09-30T01:11:36.976Z,9.40
2018-09-30T01:14:05.199Z,9.30
2018-09-30T01:16:33.458Z,9.20
2018-09-30T01:19:01.690Z,9.10
2018-09-30T01:21:29.939Z,9.10
2018-09-30T01:23:58.162Z,9.20
2018-09-30T01:26:26.395Z,9.10
2018-09-30T01:28:54.625Z,9.00
2018-09-30T01:31:22.914Z,9.00
2018-09-30T01:33:51.134Z,8.90
2018-09-30T01:36:19.350Z,8.80
2018-09-30T01:38:47.577Z,8.90
2018-09-30T01:41:15.833Z,8.90
2018-09-30T01:43:44.043Z,8.80
2018-09-30T01:46:12.410Z,8.80
2018-09-30T01:48:40.877Z,8.90
2018-09-30T01:51:09.106Z,9.00
2018-09-30T01:53:37.322Z,9.10
2018-09-30T01:56:05.558Z,9.10
2018-09-30T01:58:33.777Z,9.10
2018-09-30T02:01:02.008Z,9.00
2018-09-30T02:03:30.214Z,9.30
2018-09-30T02:05:58.446Z,9.20
2018-09-30T02:08:26.659Z,9.00
2018-09-30T02:10:54.883Z,8.90
2018-09-30T02:13:23.099Z,8.90
2018-09-30T02:15:51.327Z,8.90
2018-09-30T02:18:19.547Z,8.80
2018-09-30T02:20:47.773Z,8.70
2018-09-30T02:23:15.995Z,8.70
2018-09-30T02:25:44.219Z,8.60
2018-09-30T02:28:12.563Z,8.70
2018-09-30T02:30:40.954Z,8.70
2018-09-30T02:33:09.172Z,8.70
2018-09-30T02:35:37.399Z,8.80
2018-09-30T02:38:05.631Z,8.70
2018-09-30T02:40:33.859Z,8.60
2018-09-30T02:43:02.091Z,8.60
2018-09-30T02:45:30.306Z,8.60
2018-09-30T02:47:58.530Z,8.40
2018-09-30T02:50:26.763Z,8.30
2018-09-30T02:52:54.978Z,8.20
2018-09-30T02:55:23.199Z,8.10
2018-09-30T02:57:51.423Z,8.10
2018-09-30T03:00:19.630Z,8.10
2018-09-30T03:02:47.859Z,8.20
2018-09-30T03:05:16.071Z,8.30
2018-09-30T03:07:49.822Z,8.20
2018-09-30T03:10:18.039Z,8.30
2018-09-30T03:12:46.255Z,8.10
2018-09-30T03:15:14.677Z,8.20
2018-09-30T03:17:42.894Z,8.20
2018-09-30T03:20:11.146Z,8.10
2018-09-30T03:22:39.380Z,8.10
2018-09-30T03:25:07.604Z,8.10
2018-09-30T03:27:35.839Z,8.20
2018-09-30T03:30:04.139Z,8.20
2018-09-30T03:32:32.367Z,8.10
2018-09-30T03:35:00.583Z,8.10
2018-09-30T03:37:28.806Z,8.00
2018-09-30T03:39:57.018Z,7.90
2018-09-30T03:42:25.239Z,7.90
2018-09-30T03:44:53.442Z,7.90
2018-09-30T03:47:21.644Z,7.90
2018-09-30T03:49:49.844Z,7.90
2018-09-30T03:52:18.040Z,7.90
2018-09-30T03:54:46.234Z,7.80
2018-09-30T03:57:14.448Z,7.80
2018-09-30T03:59:42.649Z,7.80
2018-09-30T04:02:10.849Z,7.70
2018-09-30T04:04:39.051Z,7.70
2018-09-30T04:07:07.242Z,7.80
2018-09-30T04:09:35.503Z,7.90
2018-09-30T04:12:03.651Z,7.90
2018-09-30T04:14:32.075Z,8.10
2018-09-30T04:17:00.377Z,8.10
2018-09-30T04:19:28.741Z,8.10
2018-09-30T04:21:56.941Z,8.10
2018-09-30T04:24:25.152Z,8.10
2018-09-30T04:26:53.332Z,7.90
2018-09-30T04:29:21.539Z,7.90
2018-09-30T04:31:49.767Z,7.80
2018-09-30T04:34:18.027Z,7.70
2018-09-30T04:36:46.226Z,7.70
2018-09-30T04:39:14.434Z,7.60
2018-09-30T04:41:42.653Z,7.60
2018-09-30T04:44:10.859Z,7.60
2018-09-30T04:46:39.071Z,7.60
2018-09-30T04:49:07.275Z,7.60
2018-09-30T04:51:35.479Z,7.80
2018-09-30T04:54:03.720Z,7.90
2018-09-30T04:56:31.939Z,7.90
2018-09-30T04:59:00.151Z,7.90
2018-09-30T05:01:28.354Z,7.90
2018-09-30T05:03:56.555Z,8.00
2018-09-30T05:06:24.750Z,8.00
2018-09-30T05:08:52.955Z,8.00
2018-09-30T05:11:21.159Z,8.00
2018-09-30T05:13:49.369Z,7.90
2018-09-30T05:16:17.609Z,7.90
2018-09-30T05:18:45.804Z,8.00
2018-09-30T05:21:14.043Z,8.10
2018-09-30T05:23:42.251Z,8.10
2018-09-30T05:26:10.457Z,8.10
2018-09-30T05:28:38.671Z,8.00
2018-09-30T05:31:07.122Z,7.90
2018-09-30T05:33:35.311Z,8.00
2018-09-30T05:36:03.661Z,8.10
2018-09-30T05:38:31.927Z,8.10
2018-09-30T05:41:00.232Z,8.30
2018-09-30T05:43:28.583Z,8.10
2018-09-30T05:45:56.845Z,8.00
2018-09-30T05:48:25.089Z,8.00
2018-09-30T05:50:53.395Z,7.90
2018-09-30T05:53:21.788Z,8.00
2018-09-30T05:55:50.305Z,8.00
2018-09-30T05:58:18.573Z,8.00
2018-09-30T06:00:46.838Z,8.00
2018-09-30T06:03:15.203Z,8.10
2018-09-30T06:05:43.576Z,8.10
2018-09-30T06:08:11.856Z,8.10
2018-09-30T06:10:40.163Z,8.10
2018-09-30T06:13:08.429Z,8.20
2018-09-30T06:15:36.724Z,8.20
2018-09-30T06:18:05.004Z,8.20
2018-09-30T06:20:33.265Z,8.30
2018-09-30T06:23:01.524Z,8.50
2018-09-30T06:25:29.875Z,8.60
2018-09-30T06:27:58.201Z,8.60
2018-09-30T06:30:26.467Z,8.50
2018-09-30T06:32:54.743Z,8.60
2018-09-30T06:35:23.008Z,8.60
2018-09-30T06:37:51.260Z,8.60
2018-09-30T06:40:19.519Z,8.60
2018-09-30T06:42:47.769Z,8.70
2018-09-30T06:45:16.102Z,8.80
2018-09-30T06:47:44.435Z,8.90
2018-09-30T06:50:12.700Z,8.90
2018-09-30T06:52:40.959Z,8.90
2018-09-30T06:55:09.228Z,8.90
2018-09-30T06:57:37.504Z,9.00
2018-09-30T07:00:05.787Z,9.10
2018-09-30T07:02:34.063Z,9.20
2018-09-30T07:05:02.346Z,9.30
2018-09-30T07:07:30.584Z,9.50
2018-09-30T07:09:58.827Z,9.60
2018-09-30T07:12:27.097Z,9.60
2018-09-30T07:14:55.347Z,9.60
2018-09-30T07:17:23.701Z,9.80
2018-09-30T07:19:51.996Z,9.90
2018-09-30T07:22:20.380Z,10.00
2018-09-30T07:24:48.545Z,10.20
2018-09-30T07:27:16.811Z,10.30
2018-09-30T07:29:45.080Z,10.50
2018-09-30T07:32:13.412Z,10.70
2018-09-30T07:34:41.716Z,10.90
2018-09-30T07:37:09.991Z,10.90
2018-09-30T07:39:38.256Z,11.00
2018-09-30T07:42:06.537Z,11.10
2018-09-30T07:44:34.775Z,11.20
2018-09-30T07:47:03.041Z,11.40
2018-09-30T07:49:31.280Z,11.50
2018-09-30T07:51:59.548Z,11.70
2018-09-30T07:54:27.801Z,11.80
2018-09-30T07:56:56.077Z,11.90
2018-09-30T07:59:24.323Z,12.10
2018-09-30T08:01:52.571Z,12.30
2018-09-30T08:04:20.797Z,12.30
2018-09-30T08:06:49.112Z,12.60
2018-09-30T08:09:17.357Z,12.80
2018-09-30T08:11:45.636Z,13.10
2018-09-30T08:14:13.872Z,13.60
2018-09-30T08:16:42.191Z,14.00
2018-09-30T08:19:10.466Z,14.40
2018-09-30T08:21:38.726Z,14.60
2018-09-30T08:24:07.138Z,14.90
2018-09-30T08:26:35.300Z,15.30
2018-09-30T08:29:03.572Z,15.60
2018-09-30T08:31:31.820Z,15.80
2018-09-30T08:34:00.083Z,15.90
2018-09-30T08:36:28.414Z,16.10
2018-09-30T08:38:56.667Z,16.30
2018-09-30T08:41:25.377Z,16.40
2018-09-30T08:43:54.988Z,16.60
2018-09-30T08:46:23.168Z,16.90
2018-09-30T08:48:51.423Z,17.00
2018-09-30T08:51:19.747Z,17.10
2018-09-30T08:53:48.239Z,17.30
2018-09-30T08:56:16.718Z,17.40
2018-09-30T08:58:44.975Z,17.60
2018-09-30T09:01:13.222Z,17.70
2018-09-30T09:03:41.475Z,17.90
2018-09-30T09:06:09.727Z,18.10
2018-09-30T09:08:38.019Z,18.00
2018-09-30T09:11:06.387Z,18.00
2018-09-30T09:13:34.676Z,18.10
2018-09-30T09:16:03.832Z,18.10
2018-09-30T09:18:32.252Z,18.20
2018-09-30T09:21:02.513Z,18.40
2018-09-30T09:23:30.810Z,18.50
2018-09-30T09:25:59.031Z,18.80
2018-09-30T09:28:27.306Z,18.80
2018-09-30T09:30:55.672Z,19.00
2018-09-30T09:33:24.110Z,19.30
2018-09-30T09:35:52.384Z,19.40
2018-09-30T09:38:20.693Z,19.50
2018-09-30T09:40:49.047Z,20.00
2018-09-30T09:43:18.052Z,20.10
2018-09-30T09:45:47.116Z,20.40
2018-09-30T09:48:15.434Z,20.50
2018-09-30T09:50:51.361Z,20.50
2018-09-30T09:53:19.910Z,20.20
2018-09-30T09:55:48.162Z,20.20
2018-09-30T09:58:16.557Z,20.60
2018-09-30T10:00:45.694Z,20.70
2018-09-30T10:03:15.785Z,20.60
2018-09-30T10:05:44.126Z,20.80
2018-09-30T10:08:12.551Z,21.00
2018-09-30T10:10:40.831Z,21.20
2018-09-30T10:13:09.517Z,21.30
2018-09-30T10:15:37.816Z,21.50
2018-09-30T10:18:06.115Z,21.80
2018-09-30T10:20:34.436Z,21.90
2018-09-30T10:23:02.716Z,22.30
2018-09-30T10:25:32.360Z,22.30
2018-09-30T10:28:01.335Z,22.10
2018-09-30T10:30:29.728Z,22.50
2018-09-30T10:32:58.780Z,22.60
2018-09-30T10:35:27.067Z,22.40
2018-09-30T10:37:55.327Z,22.80
2018-09-30T10:40:23.719Z,22.80
2018-09-30T10:42:51.980Z,23.00
2018-09-30T10:45:20.257Z,22.90
2018-09-30T10:47:48.523Z,22.80
2018-09-30T10:50:17.035Z,22.70
2018-09-30T10:52:45.423Z,22.80
2018-09-30T10:55:13.683Z,22.90
2018-09-30T10:57:41.915Z,22.90
2018-09-30T11:00:10.171Z,23.10
2018-09-30T11:02:38.407Z,23.00
2018-09-30T11:05:06.679Z,23.20
2018-09-30T11:07:34.890Z,23.50
2018-09-30T11:10:03.168Z,23.60
2018-09-30T11:12:31.392Z,23.70
2018-09-30T11:14:59.615Z,23.60
2018-09-30T11:17:27.853Z,23.50
2018-09-30T11:19:56.111Z,23.20
2018-09-30T11:22:24.356Z,23.00
2018-09-30T11:24:52.619Z,23.00
2018-09-30T11:27:20.950Z,23.10
2018-09-30T11:29:49.300Z,23.10
2018-09-30T11:32:17.752Z,22.80
2018-09-30T11:34:45.976Z,22.40
2018-09-30T11:37:14.212Z,22.00
2018-09-30T11:39:42.562Z,21.90
2018-09-30T11:42:10.854Z,21.90
2018-09-30T11:44:39.334Z,22.20
2018-09-30T11:47:09.756Z,22.20
2018-09-30T11:49:38.081Z,22.30
2018-09-30T11:52:06.427Z,22.50
2018-09-30T11:54:36.073Z,22.50
2018-09-30T11:57:04.450Z,22.40
2018-09-30T11:59:32.773Z,22.30
2018-09-30T12:02:01.069Z,22.20
2018-09-30T12:04:29.417Z,22.10
2018-09-30T12:06:58.955Z,22.10
2018-09-30T12:09:27.258Z,22.10
2018-09-30T12:11:55.619Z,22.10
2018-09-30T12:14:24.009Z,22.20
2018-09-30T12:16:52.329Z,22.30
2018-09-30T12:19:20.970Z,22.20
2018-09-30T12:21:49.363Z,22.30
2018-09-30T12:24:17.727Z,22.30
2018-09-30T12:26:46.098Z,22.10
2018-09-30T12:29:14.424Z,22.10
2018-09-30T12:31:42.764Z,22.10
2018-09-30T12:34:11.328Z,22.00
2018-09-30T12:36:39.736Z,22.00
2018-09-30T12:39:09.019Z,22.00
2018-09-30T12:41:37.381Z,21.90
2018-09-30T12:44:05.699Z,22.00
2018-09-30T12:46:34.005Z,22.00
2018-09-30T12:49:02.409Z,22.00
2018-09-30T12:51:30.824Z,21.90
2018-09-30T12:53:59.157Z,21.90
2018-09-30T12:56:27.479Z,21.80
2018-09-30T12:58:55.880Z,21.80
2018-09-30T13:01:24.163Z,21.80
2018-09-30T13:03:52.479Z,21.80
2018-09-30T13:06:20.768Z,21.70
2018-09-30T13:08:49.129Z,21.70
2018-09-30T13:11:17.482Z,21.70
2018-09-30T13:13:45.795Z,21.60
2018-09-30T13:16:14.088Z,21.70
2018-09-30T13:18:42.385Z,21.60
2018-09-30T13:21:10.656Z,21.60
2018-09-30T13:23:38.932Z,21.60
2018-09-30T13:26:07.215Z,21.60
2018-09-30T13:28:35.524Z,21.50
2018-09-30T13:31:03.800Z,21.50
2018-09-30T13:33:32.109Z,21.40
2018-09-30T13:36:00.343Z,21.50
2018-09-30T13:38:28.620Z,21.40
2018-09-30T13:40:57.041Z,21.40
2018-09-30T13:43:25.212Z,21.50
2018-09-30T13:45:53.500Z,21.50
2018-09-30T13:48:21.768Z,21.50
2018-09-30T13:50:50.044Z,21.50
2018-09-30T13:53:18.364Z,21.50
2018-09-30T13:55:46.614Z,21.50
2018-09-30T13:58:14.923Z,21.50
2018-09-30T14:00:43.223Z,21.50
2018-09-30T14:03:11.504Z,21.50
2018-09-30T14:05:39.780Z,21.40
2018-09-30T14:08:08.052Z,21.40
2018-09-30T14:10:36.301Z,21.40
2018-09-30T14:13:04.564Z,21.40
2018-09-30T14:15:32.844Z,21.40
2018-09-30T14:18:01.109Z,21.40
2018-09-30T14:20:29.372Z,21.40
2018-09-30T14:22:57.652Z,21.30
2018-09-30T14:25:25.938Z,21.40
2018-09-30T14:27:54.225Z,21.40
2018-09-30T14:30:22.483Z,21.30
2018-09-30T14:32:50.808Z,21.40
2018-09-30T14:35:19.068Z,21.30
2018-09-30T14:37:47.360Z,21.30
2018-09-30T14:40:15.648Z,21.30
2018-09-30T14:42:43.936Z,21.40
2018-09-30T14:45:12.224Z,21.40
2018-09-30T14:47:40.507Z,21.50
2018-09-30T14:50:08.804Z,21.50
2018-09-30T14:52:37.092Z,21.50
2018-09-30T14:55:05.410Z,21.50
2018-09-30T14:57:33.699Z,21.40
2018-09-30T15:00:01.964Z,21.40
2018-09-30T15:02:30.280Z,21.40
2018-09-30T15:04:58.629Z,21.40
2018-09-30T15:07:27.282Z,21.40
2018-09-30T15:09:55.702Z,21.30
2018-09-30T15:12:23.968Z,21.20
2018-09-30T15:14:52.277Z,21.10
2018-09-30T15:17:20.588Z,21.10
2018-09-30T15:19:48.844Z,21.10
2018-09-30T15:22:17.120Z,21.00
2018-09-30T15:24:45.394Z,20.90
2018-09-30T15:27:13.669Z,20.80
2018-09-30T15:29:42.020Z,20.80
2018-09-30T15:32:10.268Z,20.80
2018-09-30T15:34:38.544Z,20.70
2018-09-30T15:37:07.615Z,20.60
2018-09-30T15:39:35.944Z,20.60
2018-09-30T15:42:10.675Z,20.50
2018-09-30T15:44:38.964Z,20.40
2018-09-30T15:47:07.212Z,20.30
2018-09-30T15:49:35.480Z,20.20
2018-09-30T15:52:03.741Z,20.10
2018-09-30T15:54:32.064Z,20.00
2018-09-30T15:57:01.877Z,20.00
2018-09-30T15:59:30.182Z,19.90
2018-09-30T16:01:58.446Z,19.80
2018-09-30T16:04:26.736Z,19.70
2018-09-30T16:06:54.975Z,19.70
2018-09-30T16:09:23.255Z,19.70
2018-09-30T16:11:51.512Z,19.70
2018-09-30T16:14:19.774Z,19.70
2018-09-30T16:16:48.007Z,19.80
2018-09-30T16:19:16.235Z,19.80
2018-09-30T16:21:44.481Z,19.90
2018-09-30T16:24:12.744Z,19.90
2018-09-30T16:26:41.034Z,19.90
2018-09-30T16:29:09.271Z,19.80
2018-09-30T16:31:37.503Z,19.80
2018-09-30T16:34:05.831Z,19.80
2018-09-30T16:36:34.083Z,19.60
2018-09-30T16:39:02.316Z,19.40
2018-09-30T16:41:30.653Z,19.30
2018-09-30T16:43:58.839Z,19.20
2018-09-30T16:46:27.085Z,19.20
2018-09-30T16:48:55.311Z,19.30
2018-09-30T16:51:23.547Z,19.30
2018-09-30T16:53:51.773Z,19.20
2018-09-30T16:56:19.999Z,19.10
2018-09-30T16:58:48.241Z,19.00
2018-09-30T17:01:16.492Z,18.90
2018-09-30T17:03:44.732Z,18.80
2018-09-30T17:06:12.980Z,18.70
2018-09-30T17:08:41.197Z,18.70
2018-09-30T17:11:09.452Z,18.60
2018-09-30T17:13:37.704Z,18.40
2018-09-30T17:16:06.026Z,18.40
2018-09-30T17:18:34.216Z,18.40
2018-09-30T17:21:02.464Z,18.30
2018-09-30T17:23:31.071Z,18.30
2018-09-30T17:25:59.289Z,18.40
2018-09-30T17:28:27.516Z,18.50
2018-09-30T17:30:55.751Z,18.40
2018-09-30T17:33:23.967Z,18.30
2018-09-30T17:35:52.179Z,18.20
2018-09-30T17:38:20.378Z,18.20
2018-09-30T17:40:48.615Z,18.10
2018-09-30T17:43:16.823Z,18.00
2018-09-30T17:45:45.029Z,18.00
2018-09-30T17:48:13.233Z,17.90
2018-09-30T17:50:41.442Z,17.80
2018-09-30T17:53:09.631Z,17.80
2018-09-30T17:55:37.846Z,17.80
2018-09-30T17:58:06.157Z,17.80
2018-09-30T18:00:34.295Z,17.70
2018-09-30T18:03:02.663Z,17.60
2018-09-30T18:05:30.940Z,17.60
2018-09-30T18:07:59.154Z,17.60
2018-09-30T18:10:27.371Z,17.50
2018-09-30T18:12:55.570Z,17.50
2018-09-30T18:15:23.803Z,17.40
2018-09-30T18:17:52.019Z,17.40
2018-09-30T18:20:20.218Z,17.40
2018-09-30T18:22:48.436Z,17.40
2018-09-30T18:25:16.644Z,17.40
2018-09-30T18:27:44.854Z,17.40
2018-09-30T18:30:13.058Z,17.30
2018-09-30T18:32:41.287Z,17.30
2018-09-30T18:35:09.483Z,17.30
2018-09-30T18:37:37.727Z,17.30
2018-09-30T18:40:06.077Z,17.30
2018-09-30T18:42:34.291Z,17.40
2018-09-30T18:45:02.955Z,17.40
2018-09-30T18:47:31.182Z,17.50
2018-09-30T18:49:59.415Z,17.50
2018-09-30T18:52:27.631Z,17.40
2018-09-30T18:54:55.831Z,17.40
2018-09-30T18:57:24.031Z,17.30
2018-09-30T18:59:52.230Z,17.30
2018-09-30T19:02:20.435Z,17.40
2018-09-30T19:04:48.636Z,17.40
2018-09-30T19:07:16.827Z,17.30
2018-09-30T19:09:45.055Z,17.20
2018-09-30T19:12:13.397Z,17.20
2018-09-30T19:14:41.466Z,17.20
2018-09-30T19:17:09.674Z,17.20
2018-09-30T19:19:37.879Z,17.30
2018-09-30T19:22:06.546Z,17.30
2018-09-30T19:24:34.973Z,17.30
2018-09-30T19:27:03.232Z,17.20
2018-09-30T19:29:31.435Z,17.20
2018-09-30T19:31:59.639Z,17.30
2018-09-30T19:34:28.084Z,17.20
2018-09-30T19:36:56.283Z,17.10
2018-09-30T19:39:24.541Z,17.20
2018-09-30T19:41:52.887Z,17.20
2018-09-30T19:44:21.011Z,17.20
2018-09-30T19:46:49.226Z,17.00
2018-09-30T19:49:17.451Z,16.90
2018-09-30T19:51:45.668Z,17.00
2018-09-30T19:54:13.898Z,17.10
2018-09-30T19:56:42.115Z,17.10
2018-09-30T19:59:10.446Z,17.00
2018-09-30T20:01:38.660Z,17.20
2018-09-30T20:04:06.909Z,17.00
2018-09-30T20:06:35.179Z,16.90
2018-09-30T20:09:03.593Z,16.80
2018-09-30T20:11:31.767Z,16.90
2018-09-30T20:13:59.996Z,16.80
2018-09-30T20:16:28.214Z,16.80
2018-09-30T20:18:56.460Z,16.80
2018-09-30T20:21:24.695Z,16.90
2018-09-30T20:23:52.917Z,16.80
2018-09-30T20:26:21.144Z,16.80
2018-09-30T20:28:49.371Z,16.70
2018-09-30T20:31:17.592Z,16.70
2018-09-30T20:33:45.830Z,16.60
2018-09-30T20:36:14.047Z,16.60
2018-09-30T20:38:42.282Z,16.70
2018-09-30T20:41:10.668Z,16.70
2018-09-30T20:43:38.921Z,16.70
2018-09-30T20:46:07.172Z,16.70
2018-09-30T20:48:35.576Z,16.70
2018-09-30T20:51:03.775Z,16.70
2018-09-30T20:53:31.979Z,16.70
2018-09-30T20:56:00.203Z,16.70
2018-09-30T20:58:28.395Z,16.70
2018-09-30T21:00:56.591Z,16.70
2018-09-30T21:03:24.807Z,16.60
2018-09-30T21:06:31.377Z,16.60
2018-09-30T21:08:59.619Z,16.60
2018-09-30T21:11:27.851Z,16.70
2018-09-30T21:13:56.324Z,16.70
2018-09-30T21:16:24.599Z,16.50
2018-09-30T21:18:52.811Z,16.50
2018-09-30T21:21:21.824Z,16.50
2018-09-30T21:23:50.015Z,16.60
2018-09-30T21:26:18.217Z,16.60
2018-09-30T21:28:46.427Z,16.50
2018-09-30T21:31:14.633Z,16.40
2018-09-30T21:33:42.835Z,16.50
2018-09-30T21:36:11.093Z,16.70
2018-09-30T21:38:39.295Z,16.50
2018-09-30T21:41:07.535Z,16.40
2018-09-30T21:43:35.754Z,16.30
2018-09-30T21:46:03.975Z,16.40
2018-09-30T21:48:32.215Z,16.40
2018-09-30T21:51:00.449Z,16.40
2018-09-30T21:53:28.670Z,16.40
2018-09-30T21:55:56.898Z,16.40
2018-09-30T21:58:25.120Z,16.40
2018-09-30T22:00:59.414Z,16.30
2018-09-30T22:03:27.998Z,16.20
2018-09-30T22:05:56.231Z,16.20
2018-09-30T22:08:24.455Z,16.20
2018-09-30T22:10:52.690Z,16.20
2018-09-30T22:13:20.902Z,16.20
2018-09-30T22:15:49.213Z,16.10
2018-09-30T22:18:17.502Z,16.10
2018-09-30T22:20:45.766Z,16.10
2018-09-30T22:23:14.147Z,16.10
2018-09-30T22:25:42.401Z,16.10
2018-09-30T22:28:10.622Z,15.90
2018-09-30T22:30:38.853Z,15.80
2018-09-30T22:33:07.087Z,15.70
2018-09-30T22:35:35.314Z,15.70
2018-09-30T22:38:03.531Z,15.60
2018-09-30T22:40:31.747Z,15.90
2018-09-30T22:42:59.949Z,15.80
2018-09-30T22:45:28.162Z,15.70
2018-09-30T22:47:56.363Z,15.70
2018-09-30T22:50:24.584Z,15.80
2018-09-30T22:52:52.797Z,15.60
2018-09-30T22:55:21.014Z,15.60
2018-09-30T22:57:49.215Z,15.70
2018-09-30T23:00:17.420Z,15.60
2018-09-30T23:02:45.642Z,15.50
2018-09-30T23:05:13.879Z,15.40
2018-09-30T23:07:42.091Z,15.30
2018-09-30T23:10:11.661Z,15.40
2018-09-30T23:12:39.899Z,15.60
2018-09-30T23:15:08.123Z,15.40
2018-09-30T23:17:36.353Z,15.30
2018-09-30T23:20:04.630Z,15.40
2018-09-30T23:22:32.847Z,15.40
2018-09-30T23:25:01.050Z,15.50
2018-09-30T23:27:29.268Z,15.60
2018-09-30T23:29:57.475Z,15.50
2018-09-30T23:32:25.699Z,15.60
2018-09-30T23:34:53.911Z,15.50
2018-09-30T23:37:22.133Z,15.50
2018-09-30T23:39:50.334Z,15.50
2018-09-30T23:42:18.609Z,15.50
2018-09-30T23:44:46.838Z,15.50
2018-09-30T23:47:15.078Z,15.40
2018-09-30T23:49:43.334Z,15.40
2018-09-30T23:52:11.575Z,15.40
2018-09-30T23:54:39.804Z,15.40
2018-09-30T23:57:08.055Z,15.50
2018-09-30T23:59:36.283Z,15.50
